Time;durP1;ratioP1;P1;durP2;ratioP2;P2;SDS_P1;SDS_P2;PMS_P1;PMS_P2;Temp;Humidity;BMP_temperature;BMP_pressure;BME280_temperature;BME280_humidity;BME280_pressure;Samples;Min_cycle;Max_cycle;Signal;HPM_P1;HPM_P2
2023/03/18 00:00:29;;;;;;;18.83;8.18;;;;;;;;;;5045630;28;20123;-76
2023/03/18 00:02:55;;;;;;;14.05;8.20;;;;;;;;;;5060971;28;20064;-76
2023/03/18 00:05:20;;;;;;;17.98;8.65;;;;;;;;;;5053993;28;20036;-76
2023/03/18 00:07:46;;;;;;;18.40;8.57;;;;;;;;;;5062282;28;20037;-76
2023/03/18 00:10:12;;;;;;;17.33;9.23;;;;;;;;;;5064813;28;20039;-76
2023/03/18 00:12:39;;;;;;;17.88;8.98;;;;;;;;;;5065795;28;20403;-76
2023/03/18 00:15:10;;;;;;;17.05;7.97;;;;;;;;;;5062145;28;20029;-76
2023/03/18 00:17:36;;;;;;;18.40;8.23;;;;;;;;;;5064053;28;20511;-76
2023/03/18 00:20:05;;;;;;;20.30;8.65;;;;;;;;;;5064517;28;20040;-76
2023/03/18 00:22:35;;;;;;;19.60;8.68;;;;;;;;;;5064900;28;20042;-76
2023/03/18 00:25:01;;;;;;;18.50;8.85;;;;;;;;;;5062600;28;20044;-75
2023/03/18 00:27:27;;;;;;;19.27;8.45;;;;;;;;;;5064724;28;20020;-76
2023/03/18 00:29:52;;;;;;;18.17;8.70;;;;;;;;;;5064270;28;20182;-76
2023/03/18 00:32:18;;;;;;;21.77;8.70;;;;;;;;;;5064021;28;20081;-76
2023/03/18 00:34:44;;;;;;;22.48;8.68;;;;;;;;;;5064636;28;20036;-76
2023/03/18 00:37:17;;;;;;;16.50;8.60;;;;;;;;;;5063000;28;20035;-76
2023/03/18 00:39:44;;;;;;;20.98;8.60;;;;;;;;;;5063026;28;20021;-76
2023/03/18 00:42:11;;;;;;;23.55;9.20;;;;;;;;;;5064586;28;20040;-76
2023/03/18 00:44:37;;;;;;;15.93;7.50;;;;;;;;;;5064616;28;20518;-76
2023/03/18 00:47:03;;;;;;;16.35;7.75;;;;;;;;;;5064017;28;20024;-76
2023/03/18 00:49:28;;;;;;;19.35;8.32;;;;;;;;;;5064447;28;20055;-77
2023/03/18 00:51:54;;;;;;;19.55;8.18;;;;;;;;;;5063843;28;20020;-75
2023/03/18 00:54:20;;;;;;;21.50;8.52;;;;;;;;;;5056588;28;20062;-76
2023/03/18 00:56:46;;;;;;;13.65;7.20;;;;;;;;;;5058693;28;20089;-76
2023/03/18 00:59:12;;;;;;;14.38;6.93;;;;;;;;;;5064555;28;20331;-76
2023/03/18 01:01:37;;;;;;;14.57;7.55;;;;;;;;;;5062847;28;20433;-76
2023/03/18 01:04:03;;;;;;;17.52;8.43;;;;;;;;;;5046788;28;20028;-76
2023/03/18 01:06:32;;;;;;;12.98;6.32;;;;;;;;;;5055562;28;20021;-76
2023/03/18 01:09:00;;;;;;;13.60;7.55;;;;;;;;;;5051006;28;20033;-76
2023/03/18 01:11:26;;;;;;;13.38;7.50;;;;;;;;;;5047428;28;20033;-76
2023/03/18 01:13:52;;;;;;;15.68;7.35;;;;;;;;;;5047378;28;20116;-76
2023/03/18 01:16:19;;;;;;;15.55;7.88;;;;;;;;;;5046571;28;20112;-76
2023/03/18 01:18:45;;;;;;;18.13;7.43;;;;;;;;;;5046142;28;20049;-76
2023/03/18 01:21:11;;;;;;;13.18;6.32;;;;;;;;;;5048023;28;20072;-76
2023/03/18 01:23:37;;;;;;;15.15;7.22;;;;;;;;;;5047480;28;20075;-76
2023/03/18 01:26:03;;;;;;;13.48;6.35;;;;;;;;;;5047421;28;20043;-76
2023/03/18 01:28:29;;;;;;;16.58;7.68;;;;;;;;;;5047781;28;20036;-76
2023/03/18 01:30:56;;;;;;;11.27;6.20;;;;;;;;;;5050426;28;20016;-76
2023/03/18 01:33:22;;;;;;;15.55;7.18;;;;;;;;;;5067512;28;20749;-76
2023/03/18 01:35:54;;;;;;;17.48;7.35;;;;;;;;;;5067610;28;20519;-77
2023/03/18 01:38:19;;;;;;;17.25;8.15;;;;;;;;;;5049349;28;20048;-77
2023/03/18 01:40:44;;;;;;;13.63;6.80;;;;;;;;;;5066136;28;20059;-75
2023/03/18 01:43:11;;;;;;;16.60;7.70;;;;;;;;;;5067136;28;20112;-76
2023/03/18 01:45:37;;;;;;;15.05;7.10;;;;;;;;;;5066499;28;20028;-76
2023/03/18 01:48:03;;;;;;;17.02;7.95;;;;;;;;;;5066404;28;20801;-76
2023/03/18 01:50:34;;;;;;;16.35;7.13;;;;;;;;;;5067380;28;20032;-76
2023/03/18 01:53:05;;;;;;;19.67;7.53;;;;;;;;;;5064776;28;20032;-77
2023/03/18 01:55:32;;;;;;;18.13;7.68;;;;;;;;;;5066520;28;20060;-77
2023/03/18 01:57:58;;;;;;;15.60;7.43;;;;;;;;;;5066668;28;20032;-76
2023/03/18 02:00:24;;;;;;;14.25;7.00;;;;;;;;;;5067094;28;20029;-76
2023/03/18 02:02:52;;;;;;;17.00;7.32;;;;;;;;;;5060081;28;20062;-76
2023/03/18 02:05:20;;;;;;;15.25;7.03;;;;;;;;;;5066746;28;20114;-76
2023/03/18 02:07:46;;;;;;;15.50;7.53;;;;;;;;;;5066538;28;20060;-76
2023/03/18 02:10:29;;;;;;;14.70;7.60;;;;;;;;;;5065270;28;20063;-76
2023/03/18 02:13:01;;;;;;;16.88;7.32;;;;;;;;;;5066710;28;20078;-76
2023/03/18 02:15:28;;;;;;;13.67;6.80;;;;;;;;;;5060529;28;20506;-76
2023/03/18 02:18:14;;;;;;;15.23;6.85;;;;;;;;;;5065274;28;20039;-77
2023/03/18 02:21:00;;;;;;;13.43;6.53;;;;;;;;;;5066289;28;20115;-76
2023/03/18 02:23:32;;;;;;;15.30;7.38;;;;;;;;;;5063992;28;20071;-75
2023/03/18 02:25:57;;;;;;;16.55;6.82;;;;;;;;;;5060951;28;20411;-77
2023/03/18 02:28:27;;;;;;;14.13;6.68;;;;;;;;;;5066337;28;20738;-76
2023/03/18 02:30:59;;;;;;;15.68;7.03;;;;;;;;;;5064967;28;20024;-76
2023/03/18 02:33:29;;;;;;;15.55;7.03;;;;;;;;;;5061119;28;20136;-77
2023/03/18 02:35:59;;;;;;;18.60;7.03;;;;;;;;;;5065704;28;20040;-77
2023/03/18 02:38:25;;;;;;;13.05;6.72;;;;;;;;;;5065856;28;20094;-76
2023/03/18 02:40:51;;;;;;;13.63;6.65;;;;;;;;;;5041781;28;20037;-76
2023/03/18 02:43:22;;;;;;;12.68;6.97;;;;;;;;;;5053469;28;20032;-76
2023/03/18 02:45:56;;;;;;;15.60;6.30;;;;;;;;;;5065722;28;20105;-76
2023/03/18 02:48:26;;;;;;;17.45;7.50;;;;;;;;;;5063754;28;20044;-77
2023/03/18 02:50:52;;;;;;;14.73;6.80;;;;;;;;;;5066267;28;20525;-76
2023/03/18 02:53:18;;;;;;;15.20;6.93;;;;;;;;;;5063103;28;20066;-76
2023/03/18 02:55:44;;;;;;;13.45;6.25;;;;;;;;;;5045441;28;20407;-77
2023/03/18 02:58:10;;;;;;;15.95;6.18;;;;;;;;;;5045888;28;20029;-76
2023/03/18 03:00:36;;;;;;;11.60;6.40;;;;;;;;;;5044757;28;20428;-77
2023/03/18 03:03:02;;;;;;;13.02;6.32;;;;;;;;;;5061987;28;20049;-76
2023/03/18 03:05:28;;;;;;;15.10;6.35;;;;;;;;;;5064300;28;20036;-77
2023/03/18 03:07:53;;;;;;;11.77;6.03;;;;;;;;;;5065343;28;20041;-77
2023/03/18 03:10:18;;;;;;;12.32;6.05;;;;;;;;;;5060463;28;20041;-76
2023/03/18 03:12:44;;;;;;;12.18;6.10;;;;;;;;;;5046131;28;20025;-76
2023/03/18 03:15:10;;;;;;;12.18;6.25;;;;;;;;;;5043417;28;20041;-75
2023/03/18 03:17:35;;;;;;;14.40;5.88;;;;;;;;;;5057927;28;20032;-77
2023/03/18 03:20:04;;;;;;;14.02;6.13;;;;;;;;;;5066245;28;20060;-76
2023/03/18 03:22:30;;;;;;;14.63;6.60;;;;;;;;;;5065124;28;20060;-76
2023/03/18 03:24:55;;;;;;;15.45;5.75;;;;;;;;;;5048309;28;20486;-76
2023/03/18 03:27:21;;;;;;;13.45;6.45;;;;;;;;;;5044780;28;20108;-76
2023/03/18 03:29:47;;;;;;;14.73;6.15;;;;;;;;;;5045407;28;20040;-76
2023/03/18 03:32:12;;;;;;;13.13;6.38;;;;;;;;;;5046763;28;20047;-76
2023/03/18 03:34:37;;;;;;;13.30;5.95;;;;;;;;;;5061248;28;20040;-76
2023/03/18 03:37:03;;;;;;;15.02;6.57;;;;;;;;;;5063640;28;20029;-76
2023/03/18 03:39:28;;;;;;;13.80;6.60;;;;;;;;;;5065167;28;20020;-76
2023/03/18 03:41:54;;;;;;;16.05;6.40;;;;;;;;;;5064248;28;20039;-76
2023/03/18 03:44:19;;;;;;;13.02;6.18;;;;;;;;;;5064029;28;20036;-77
2023/03/18 03:46:45;;;;;;;12.23;5.85;;;;;;;;;;5063827;28;20513;-76
2023/03/18 03:49:11;;;;;;;17.48;7.05;;;;;;;;;;5063627;28;20052;-76
2023/03/18 03:51:36;;;;;;;15.85;6.93;;;;;;;;;;5056925;28;20020;-76
2023/03/18 03:54:02;;;;;;;15.43;6.88;;;;;;;;;;5044745;28;20116;-76
2023/03/18 03:56:27;;;;;;;17.17;7.40;;;;;;;;;;5044751;28;20045;-76
2023/03/18 03:58:53;;;;;;;15.43;6.78;;;;;;;;;;5051328;28;20051;-76
2023/03/18 04:01:18;;;;;;;18.60;7.00;;;;;;;;;;5057380;28;20044;-76
2023/03/18 04:03:44;;;;;;;13.98;6.70;;;;;;;;;;5063818;28;20056;-77
2023/03/18 04:06:10;;;;;;;19.70;7.70;;;;;;;;;;5065095;28;20032;-76
2023/03/18 04:08:35;;;;;;;19.45;8.68;;;;;;;;;;5053490;28;20136;-76
2023/03/18 04:11:03;;;;;;;18.98;8.40;;;;;;;;;;5059001;28;20493;-76
2023/03/18 04:13:28;;;;;;;15.13;6.72;;;;;;;;;;5064893;28;20120;-76
2023/03/18 04:15:54;;;;;;;15.82;7.68;;;;;;;;;;5065074;28;20099;-75
2023/03/18 04:18:20;;;;;;;17.20;8.10;;;;;;;;;;5063921;28;20028;-76
2023/03/18 04:20:46;;;;;;;16.20;7.95;;;;;;;;;;5065152;28;20066;-76
2023/03/18 04:23:13;;;;;;;16.85;7.80;;;;;;;;;;5063374;28;20041;-76
2023/03/18 04:25:38;;;;;;;15.73;8.40;;;;;;;;;;5064268;28;20474;-76
2023/03/18 04:28:04;;;;;;;18.25;7.93;;;;;;;;;;5064231;28;20503;-76
2023/03/18 04:30:30;;;;;;;17.67;8.07;;;;;;;;;;5051176;28;20094;-76
2023/03/18 04:32:56;;;;;;;24.20;8.40;;;;;;;;;;5062899;28;20419;-76
2023/03/18 04:35:22;;;;;;;22.98;9.85;;;;;;;;;;5067244;28;20037;-76
2023/03/18 04:37:48;;;;;;;23.00;10.25;;;;;;;;;;5068768;28;20070;-76
2023/03/18 04:40:14;;;;;;;18.75;9.05;;;;;;;;;;5068482;28;20032;-76
2023/03/18 04:42:40;;;;;;;20.77;8.75;;;;;;;;;;5069345;28;20020;-77
2023/03/18 04:45:06;;;;;;;23.42;9.52;;;;;;;;;;5068260;28;20067;-76
2023/03/18 04:47:33;;;;;;;18.30;7.95;;;;;;;;;;5068439;28;20040;-76
2023/03/18 04:49:58;;;;;;;20.13;8.85;;;;;;;;;;5065707;28;20045;-76
2023/03/18 04:52:24;;;;;;;18.52;9.45;;;;;;;;;;5053631;28;20067;-76
2023/03/18 04:54:49;;;;;;;21.17;9.52;;;;;;;;;;5057189;28;20115;-76
2023/03/18 04:57:15;;;;;;;22.00;9.57;;;;;;;;;;5068299;28;20570;-76
2023/03/18 04:59:41;;;;;;;21.15;9.68;;;;;;;;;;5055380;28;20438;-76
2023/03/18 05:02:07;;;;;;;23.50;9.73;;;;;;;;;;5047560;28;20701;-76
2023/03/18 05:04:33;;;;;;;20.67;9.27;;;;;;;;;;5047778;28;20045;-76
2023/03/18 05:06:58;;;;;;;25.40;9.55;;;;;;;;;;5048331;28;20411;-76
2023/03/18 05:09:24;;;;;;;21.25;9.43;;;;;;;;;;5055255;28;20158;-76
2023/03/18 05:11:49;;;;;;;20.60;9.07;;;;;;;;;;5045943;28;20036;-77
2023/03/18 05:14:15;;;;;;;22.98;9.15;;;;;;;;;;5048189;28;20530;-77
2023/03/18 05:16:41;;;;;;;17.75;8.02;;;;;;;;;;5046640;28;20116;-76
2023/03/18 05:19:08;;;;;;;18.80;8.32;;;;;;;;;;5047703;28;20021;-76
2023/03/18 05:21:34;;;;;;;21.77;9.43;;;;;;;;;;5048359;28;20033;-76
2023/03/18 05:24:00;;;;;;;20.70;8.45;;;;;;;;;;5063139;28;20037;-76
2023/03/18 05:26:26;;;;;;;21.67;8.38;;;;;;;;;;5047791;28;20051;-76
2023/03/18 05:28:52;;;;;;;18.90;8.93;;;;;;;;;;5048033;28;20487;-77
2023/03/18 05:31:18;;;;;;;17.50;8.05;;;;;;;;;;5059169;28;20052;-76
2023/03/18 05:33:43;;;;;;;19.30;8.40;;;;;;;;;;5068507;28;20056;-76
2023/03/18 05:36:09;;;;;;;20.05;8.98;;;;;;;;;;5067554;28;20028;-76
2023/03/18 05:38:34;;;;;;;23.63;9.10;;;;;;;;;;5064434;28;20033;-76
2023/03/18 05:41:00;;;;;;;19.10;8.60;;;;;;;;;;5067475;28;20036;-77
2023/03/18 05:43:25;;;;;;;19.05;8.15;;;;;;;;;;5066096;28;20249;-76
2023/03/18 05:45:50;;;;;;;18.48;8.75;;;;;;;;;;5067520;28;20654;-76
2023/03/18 05:48:16;;;;;;;17.92;8.35;;;;;;;;;;5067708;28;20024;-76
2023/03/18 05:50:42;;;;;;;23.27;8.57;;;;;;;;;;5066534;28;20044;-76
2023/03/18 05:53:09;;;;;;;23.63;8.35;;;;;;;;;;5067189;28;20035;-76
2023/03/18 05:55:35;;;;;;;26.60;8.70;;;;;;;;;;5060359;28;20049;-76
2023/03/18 05:58:01;;;;;;;20.90;7.90;;;;;;;;;;5063361;28;20020;-76
2023/03/18 06:00:28;;;;;;;22.08;8.52;;;;;;;;;;5068137;28;20086;-76
2023/03/18 06:02:54;;;;;;;15.20;7.75;;;;;;;;;;5066631;28;20412;-76
2023/03/18 06:05:21;;;;;;;22.58;9.02;;;;;;;;;;5066544;28;20039;-76
2023/03/18 06:07:47;;;;;;;17.98;8.75;;;;;;;;;;5066660;28;20032;-76
2023/03/18 06:10:13;;;;;;;13.80;6.28;;;;;;;;;;5066073;28;20101;-75
2023/03/18 06:12:40;;;;;;;17.75;8.73;;;;;;;;;;5062363;28;20029;-75
2023/03/18 06:15:06;;;;;;;18.42;8.13;;;;;;;;;;5066684;28;20098;-77
2023/03/18 06:17:32;;;;;;;20.95;8.02;;;;;;;;;;5065521;28;20531;-76
2023/03/18 06:19:58;;;;;;;21.58;8.65;;;;;;;;;;5067544;28;20119;-76
2023/03/18 06:22:24;;;;;;;20.00;8.50;;;;;;;;;;5065622;28;20119;-76
2023/03/18 06:24:50;;;;;;;17.25;7.57;;;;;;;;;;5059109;28;20060;-75
2023/03/18 06:27:16;;;;;;;18.45;7.82;;;;;;;;;;5047443;28;20017;-76
2023/03/18 06:29:41;;;;;;;18.38;8.23;;;;;;;;;;5046661;28;20087;-77
2023/03/18 06:32:07;;;;;;;16.90;7.78;;;;;;;;;;5047243;28;20037;-76
2023/03/18 06:34:33;;;;;;;20.60;8.63;;;;;;;;;;5044635;28;20419;-77
2023/03/18 06:36:59;;;;;;;20.42;8.40;;;;;;;;;;5047110;28;20403;-76
2023/03/18 06:39:24;;;;;;;18.83;7.93;;;;;;;;;;5049553;28;20020;-76
2023/03/18 06:41:49;;;;;;;16.98;8.20;;;;;;;;;;5052345;28;20033;-76
2023/03/18 06:44:15;;;;;;;14.57;7.57;;;;;;;;;;5053144;28;20127;-75
2023/03/18 06:46:40;;;;;;;18.88;8.48;;;;;;;;;;5049613;28;20764;-77
2023/03/18 06:49:06;;;;;;;17.20;7.40;;;;;;;;;;5046684;28;20535;-76
2023/03/18 06:51:33;;;;;;;19.70;8.65;;;;;;;;;;5048210;28;20040;-76
2023/03/18 06:53:59;;;;;;;18.90;8.05;;;;;;;;;;5051459;28;20041;-76
2023/03/18 06:56:24;;;;;;;23.58;9.52;;;;;;;;;;5064669;28;20047;-76
2023/03/18 06:58:50;;;;;;;19.98;9.10;;;;;;;;;;5045228;28;20539;-76
2023/03/18 07:01:16;;;;;;;21.17;8.73;;;;;;;;;;5052483;28;20028;-77
2023/03/18 07:03:42;;;;;;;21.60;9.25;;;;;;;;;;5044933;28;21192;-77
2023/03/18 07:06:09;;;;;;;20.17;8.63;;;;;;;;;;5048066;28;20033;-76
2023/03/18 07:08:35;;;;;;;16.27;7.80;;;;;;;;;;5053211;28;20749;-77
2023/03/18 07:11:00;;;;;;;18.30;8.50;;;;;;;;;;5056072;28;20038;-77
2023/03/18 07:13:25;;;;;;;17.83;8.18;;;;;;;;;;5064834;28;20040;-77
2023/03/18 07:15:55;;;;;;;16.52;7.85;;;;;;;;;;5063730;28;20032;-78
2023/03/18 07:18:20;;;;;;;11.38;5.78;;;;;;;;;;5059012;28;20070;-77
2023/03/18 07:20:46;;;;;;;11.77;4.90;;;;;;;;;;5055133;28;20045;-77
2023/03/18 07:23:11;;;;;;;15.48;7.38;;;;;;;;;;5051452;28;20116;-74
2023/03/18 07:25:37;;;;;;;14.18;6.55;;;;;;;;;;5043077;28;20065;-76
2023/03/18 07:28:03;;;;;;;10.90;5.03;;;;;;;;;;5058755;28;20036;-74
2023/03/18 07:30:29;;;;;;;16.15;6.97;;;;;;;;;;5058790;28;20060;-74
2023/03/18 07:32:54;;;;;;;13.00;5.68;;;;;;;;;;5044593;28;20045;-74
2023/03/18 07:35:20;;;;;;;13.80;6.82;;;;;;;;;;5047288;28;20124;-74
2023/03/18 07:37:46;;;;;;;11.98;5.10;;;;;;;;;;5045793;28;20056;-74
2023/03/18 07:40:12;;;;;;;16.48;7.32;;;;;;;;;;5048690;28;20075;-74
2023/03/18 07:42:38;;;;;;;9.27;5.03;;;;;;;;;;5056374;28;20032;-74
2023/03/18 07:45:07;;;;;;;14.98;6.93;;;;;;;;;;5063614;28;20083;-76
2023/03/18 07:47:32;;;;;;;17.48;7.47;;;;;;;;;;5052321;28;20036;-75
2023/03/18 07:49:58;;;;;;;14.27;5.68;;;;;;;;;;5050767;28;20121;-76
2023/03/18 07:52:24;;;;;;;14.52;6.38;;;;;;;;;;5052096;28;20374;-72
2023/03/18 07:54:50;;;;;;;17.98;6.90;;;;;;;;;;5050325;28;20032;-77
2023/03/18 07:57:16;;;;;;;11.48;5.78;;;;;;;;;;5054356;28;20508;-75
2023/03/18 07:59:41;;;;;;;13.45;5.45;;;;;;;;;;5053597;28;20043;-77
2023/03/18 08:02:07;;;;;;;17.70;7.53;;;;;;;;;;5055471;28;20052;-75
2023/03/18 08:04:34;;;;;;;14.23;6.20;;;;;;;;;;5056110;28;20051;-76
2023/03/18 08:07:00;;;;;;;16.50;6.90;;;;;;;;;;5052673;28;20055;-76
2023/03/18 08:09:26;;;;;;;13.63;6.97;;;;;;;;;;5051461;28;20728;-76
2023/03/18 08:11:52;;;;;;;12.45;6.15;;;;;;;;;;5066211;28;20037;-77
2023/03/18 08:14:18;;;;;;;15.10;6.95;;;;;;;;;;5068572;28;20041;-76
2023/03/18 08:16:43;;;;;;;16.77;6.63;;;;;;;;;;5067807;28;20036;-77
2023/03/18 08:19:08;;;;;;;11.27;6.05;;;;;;;;;;5061048;28;20683;-74
2023/03/18 08:21:34;;;;;;;13.18;6.70;;;;;;;;;;5051193;28;20040;-76
2023/03/18 08:23:59;;;;;;;12.98;6.20;;;;;;;;;;5054291;28;20041;-77
2023/03/18 08:26:24;;;;;;;14.88;6.30;;;;;;;;;;5051126;28;20464;-77
2023/03/18 08:28:50;;;;;;;12.27;5.88;;;;;;;;;;5057116;28;20600;-76
2023/03/18 08:31:15;;;;;;;10.98;5.70;;;;;;;;;;5054847;28;20044;-75
2023/03/18 08:33:41;;;;;;;14.95;6.57;;;;;;;;;;5057533;28;20055;-77
2023/03/18 08:36:07;;;;;;;12.10;6.10;;;;;;;;;;5052285;28;20029;-76
2023/03/18 08:38:33;;;;;;;11.50;4.57;;;;;;;;;;5057805;28;20052;-76
2023/03/18 08:40:58;;;;;;;13.40;5.15;;;;;;;;;;5062891;28;20036;-77
2023/03/18 08:43:24;;;;;;;12.18;5.53;;;;;;;;;;5061206;28;20093;-77
2023/03/18 08:45:52;;;;;;;10.30;4.63;;;;;;;;;;5061105;28;20020;-76
2023/03/18 08:48:17;;;;;;;9.07;5.43;;;;;;;;;;5059834;28;20020;-76
2023/03/18 08:50:43;;;;;;;11.00;5.57;;;;;;;;;;5058043;28;20121;-77
2023/03/18 08:53:10;;;;;;;11.25;5.80;;;;;;;;;;5050677;28;20037;-77
2023/03/18 08:55:39;;;;;;;12.10;5.22;;;;;;;;;;5047937;28;20127;-75
2023/03/18 08:58:06;;;;;;;10.65;4.47;;;;;;;;;;5057861;28;20990;-77
2023/03/18 09:00:33;;;;;;;8.00;4.28;;;;;;;;;;5059231;28;20029;-77
2023/03/18 09:02:59;;;;;;;9.10;3.63;;;;;;;;;;5055545;28;20179;-77
2023/03/18 09:05:24;;;;;;;9.10;4.50;;;;;;;;;;5064189;28;20151;-77
2023/03/18 09:07:52;;;;;;;9.60;5.05;;;;;;;;;;5061770;28;20040;-75
2023/03/18 09:10:18;;;;;;;7.72;4.38;;;;;;;;;;5066388;28;20603;-75
2023/03/18 09:12:44;;;;;;;5.05;3.50;;;;;;;;;;5066115;28;20036;-75
2023/03/18 09:15:11;;;;;;;7.05;3.60;;;;;;;;;;5057694;28;20043;-76
2023/03/18 09:17:39;;;;;;;5.57;2.35;;;;;;;;;;5061953;28;20044;-75
2023/03/18 09:20:06;;;;;;;8.10;4.10;;;;;;;;;;5063231;28;20093;-75
2023/03/18 09:22:31;;;;;;;9.07;3.75;;;;;;;;;;5066197;28;20052;-76
2023/03/18 09:24:57;;;;;;;4.25;2.75;;;;;;;;;;5066732;28;20052;-76
2023/03/18 09:27:22;;;;;;;6.25;3.72;;;;;;;;;;5067860;28;20035;-76
2023/03/18 09:29:48;;;;;;;8.68;3.33;;;;;;;;;;5067374;28;20491;-77
2023/03/18 09:32:15;;;;;;;6.00;3.22;;;;;;;;;;5062586;28;20033;-76
2023/03/18 09:34:40;;;;;;;8.65;3.72;;;;;;;;;;5059052;28;20063;-76
2023/03/18 09:37:05;;;;;;;5.25;3.22;;;;;;;;;;5051646;28;20483;-75
2023/03/18 09:39:31;;;;;;;7.90;3.90;;;;;;;;;;5053101;28;20033;-73
2023/03/18 09:42:04;;;;;;;5.35;2.90;;;;;;;;;;5062690;28;20036;-74
2023/03/18 09:44:33;;;;;;;8.95;3.50;;;;;;;;;;5063482;28;20037;-73
2023/03/18 09:47:36;;;;;;;7.15;3.28;;;;;;;;;;5063842;28;20037;-73
2023/03/18 09:50:20;;;;;;;5.47;2.88;;;;;;;;;;5066824;28;20044;-74
2023/03/18 09:52:52;;;;;;;;;;;;;;;;;;5066358;28;20047;-73
2023/03/18 09:55:21;;;;;;;3.42;2.20;;;;;;;;;;5066972;28;19912;-73
2023/03/18 09:57:50;;;;;;;5.25;3.05;;;;;;;;;;5063647;28;20020;-73
2023/03/18 10:00:24;;;;;;;6.20;2.97;;;;;;;;;;5044868;28;20076;-74
2023/03/18 10:02:57;;;;;;;3.65;2.13;;;;;;;;;;5061955;28;20511;-73
2023/03/18 10:05:32;;;;;;;6.50;3.10;;;;;;;;;;5066782;28;20579;-74
2023/03/18 10:08:04;;;;;;;3.53;2.60;;;;;;;;;;5066867;28;20903;-74
2023/03/18 10:10:37;;;;;;;5.05;3.00;;;;;;;;;;5066589;28;20037;-73
2023/03/18 10:13:23;;;;;;;5.70;2.55;;;;;;;;;;5050732;28;20033;-75
2023/03/18 10:15:53;;;;;;;9.00;3.00;;;;;;;;;;5046131;28;20032;-74
2023/03/18 10:18:32;;;;;;;4.63;2.72;;;;;;;;;;5047270;28;20080;-74
2023/03/18 10:21:13;;;;;;;6.78;2.78;;;;;;;;;;5044963;28;20664;-74
2023/03/18 10:24:04;;;;;;;3.08;2.15;;;;;;;;;;5047392;28;20116;-74
2023/03/18 10:26:36;;;;;;;7.60;2.75;;;;;;;;;;5046724;28;20137;-74
2023/03/18 10:29:13;;;;;;;5.40;2.55;;;;;;;;;;5045165;28;20523;-74
2023/03/18 10:32:17;;;;;;;3.95;2.17;;;;;;;;;;5045847;28;20041;-75
2023/03/18 10:35:01;;;;;;;5.43;2.35;;;;;;;;;;5060478;28;20037;-74
2023/03/18 10:37:39;;;;;;;;;;;;;;;;;;5067175;28;20035;-74
2023/03/18 10:40:14;;;;;;;3.53;1.70;;;;;;;;;;5066435;28;20015;-74
2023/03/18 10:42:41;;;;;;;5.82;2.58;;;;;;;;;;5066662;28;20093;-74
2023/03/18 10:45:12;;;;;;;3.50;2.10;;;;;;;;;;5065305;28;21113;-74
2023/03/18 10:47:40;;;;;;;3.92;2.45;;;;;;;;;;5058832;28;20033;-74
2023/03/18 10:50:20;;;;;;;2.53;1.48;;;;;;;;;;5065078;28;20070;-73
2023/03/18 10:52:59;;;;;;;3.28;2.70;;;;;;;;;;5066075;28;20057;-74
2023/03/18 10:55:36;;;;;;;3.22;1.98;;;;;;;;;;5061017;28;20036;-74
2023/03/18 10:58:28;;;;;;;5.47;2.30;;;;;;;;;;5060881;28;20074;-74
2023/03/18 11:00:54;;;;;;;6.07;2.65;;;;;;;;;;5065779;28;20095;-73
2023/03/18 11:03:28;;;;;;;4.43;2.58;;;;;;;;;;5065255;28;20484;-73
2023/03/18 11:05:57;;;;;;;5.63;2.17;;;;;;;;;;5066180;28;20036;-74
2023/03/18 11:08:41;;;;;;;3.22;1.92;;;;;;;;;;5051359;28;20126;-74
2023/03/18 11:11:13;;;;;;;;;;;;;;;;;;5047991;28;20036;-74
2023/03/18 11:13:45;;;;;;;3.63;1.70;;;;;;;;;;5055764;28;19981;-74
2023/03/18 11:16:20;;;;;;;3.08;1.83;;;;;;;;;;5053177;28;20041;-74
2023/03/18 11:18:47;;;;;;;4.03;1.80;;;;;;;;;;5052359;28;20078;-74
2023/03/18 11:21:13;;;;;;;2.47;1.55;;;;;;;;;;5046591;28;20405;-73
2023/03/18 11:24:09;;;;;;;2.53;1.63;;;;;;;;;;5051929;28;20504;-74
2023/03/18 11:26:51;;;;;;;1.95;1.60;;;;;;;;;;5055065;28;20037;-74
2023/03/18 11:29:39;;;;;;;3.08;1.88;;;;;;;;;;5048820;28;20040;-73
2023/03/18 11:32:04;;;;;;;3.28;1.85;;;;;;;;;;5051097;28;20051;-73
2023/03/18 11:34:34;;;;;;;3.60;2.13;;;;;;;;;;5050478;28;20408;-74
2023/03/18 11:37:07;;;;;;;2.20;1.60;;;;;;;;;;5051442;28;20507;-74
2023/03/18 11:39:38;;;;;;;3.15;1.70;;;;;;;;;;5053142;28;20016;-74
2023/03/18 11:42:17;;;;;;;3.10;1.75;;;;;;;;;;5052089;28;20035;-74
2023/03/18 11:44:43;;;;;;;3.90;1.90;;;;;;;;;;5051152;28;20033;-74
2023/03/18 11:47:18;;;;;;;2.28;1.70;;;;;;;;;;5053376;28;20028;-74
2023/03/18 11:49:44;;;;;;;3.70;2.20;;;;;;;;;;5054239;28;20044;-74
2023/03/18 11:52:33;;;;;;;5.47;2.25;;;;;;;;;;5050081;28;20033;-74
2023/03/18 11:55:10;;;;;;;3.10;1.55;;;;;;;;;;5047434;28;20118;-74
2023/03/18 11:57:59;;;;;;;3.85;1.90;;;;;;;;;;5056333;28;20043;-74
2023/03/18 12:00:36;;;;;;;3.05;1.92;;;;;;;;;;5054324;28;20041;-74
2023/03/18 12:03:23;;;;;;;4.28;2.08;;;;;;;;;;5047325;28;20045;-74
2023/03/18 12:06:05;;;;;;;4.38;1.98;;;;;;;;;;5046746;28;20281;-74
2023/03/18 12:08:49;;;;;;;3.28;1.90;;;;;;;;;;5048955;28;20078;-74
2023/03/18 12:11:33;;;;;;;;;;;;;;;;;;5045105;28;20060;-74
2023/03/18 12:14:37;;;;;;;4.22;2.50;;;;;;;;;;5047017;28;19920;-74
2023/03/18 12:17:42;;;;;;;4.82;2.30;;;;;;;;;;5055025;28;20565;-74
2023/03/18 12:20:42;;;;;;;2.72;1.67;;;;;;;;;;5041646;28;20387;-74
2023/03/18 12:23:46;;;;;;;3.72;1.60;;;;;;;;;;5041617;28;21403;-74
2023/03/18 12:26:27;;;;;;;4.90;2.03;;;;;;;;;;5053081;28;20543;-74
2023/03/18 12:29:13;;;;;;;5.80;1.70;;;;;;;;;;5055965;28;20060;-74
2023/03/18 12:31:54;;;;;;;5.05;2.05;;;;;;;;;;5048249;28;20056;-74
2023/03/18 12:34:34;;;;;;;6.20;2.38;;;;;;;;;;5049037;28;20048;-74
2023/03/18 12:37:23;;;;;;;2.00;1.60;;;;;;;;;;5048096;28;20028;-74
2023/03/18 12:39:54;;;;;;;3.25;1.65;;;;;;;;;;5055589;28;20032;-73
2023/03/18 12:42:53;;;;;;;2.65;1.60;;;;;;;;;;5054062;28;20021;-74
2023/03/18 12:45:21;;;;;;;3.03;1.52;;;;;;;;;;5049835;28;20534;-74
2023/03/18 12:47:56;;;;;;;3.70;1.15;;;;;;;;;;5040763;28;20037;-75
2023/03/18 12:51:19;;;;;;;3.17;1.70;;;;;;;;;;5046100;28;20036;-75
2023/03/18 12:53:48;;;;;;;2.08;0.98;;;;;;;;;;5039329;28;20672;-74
2023/03/18 12:56:24;;;;;;;2.65;1.45;;;;;;;;;;5055245;28;20024;-74
2023/03/18 12:58:54;;;;;;;3.65;1.67;;;;;;;;;;5048429;28;20032;-75
2023/03/18 13:01:30;;;;;;;4.47;1.58;;;;;;;;;;5058344;28;20554;-75
2023/03/18 13:04:01;;;;;;;4.80;1.88;;;;;;;;;;5051635;28;20048;-76
2023/03/18 13:06:36;;;;;;;4.32;1.40;;;;;;;;;;5050801;28;20051;-76
2023/03/18 13:09:47;;;;;;;2.85;1.48;;;;;;;;;;5058432;28;20040;-76
2023/03/18 13:12:14;;;;;;;7.88;1.30;;;;;;;;;;5060923;28;20037;-74
2023/03/18 13:14:58;;;;;;;1.67;0.80;;;;;;;;;;5048691;28;20143;-75
2023/03/18 13:17:45;;;;;;;3.53;1.17;;;;;;;;;;5051181;28;20067;-75
2023/03/18 13:20:19;;;;;;;2.83;1.23;;;;;;;;;;5059895;28;20040;-76
2023/03/18 13:22:58;;;;;;;5.90;1.65;;;;;;;;;;5064626;28;20033;-76
2023/03/18 13:25:27;;;;;;;3.67;1.20;;;;;;;;;;5048688;28;20608;-76
2023/03/18 13:28:22;;;;;;;5.82;1.38;;;;;;;;;;5048105;28;20024;-76
2023/03/18 13:31:02;;;;;;;3.08;1.27;;;;;;;;;;5056226;28;20407;-75
2023/03/18 13:33:33;;;;;;;2.05;1.25;;;;;;;;;;5051816;28;20052;-75
2023/03/18 13:36:10;;;;;;;1.30;0.88;;;;;;;;;;5063163;28;20090;-76
2023/03/18 13:39:01;;;;;;;0.90;0.80;;;;;;;;;;5062320;28;20029;-75
2023/03/18 13:41:48;;;;;;;1.70;1.15;;;;;;;;;;5064562;28;20045;-76
2023/03/18 13:44:20;;;;;;;2.13;1.10;;;;;;;;;;5065083;28;20485;-77
2023/03/18 13:47:04;;;;;;;2.55;1.50;;;;;;;;;;5062407;28;20086;-77
2023/03/18 13:49:31;;;;;;;2.67;1.33;;;;;;;;;;5065197;28;20071;-76
2023/03/18 13:52:01;;;;;;;2.05;1.02;;;;;;;;;;5064563;28;20487;-76
2023/03/18 13:54:36;;;;;;;4.03;1.60;;;;;;;;;;5065999;28;20036;-76
2023/03/18 13:57:21;;;;;;;2.00;1.17;;;;;;;;;;5065036;28;20044;-76
2023/03/18 13:59:47;;;;;;;2.33;1.30;;;;;;;;;;5060293;28;20110;-77
2023/03/18 14:02:28;;;;;;;5.68;1.20;;;;;;;;;;5059870;28;20082;-78
2023/03/18 14:04:57;;;;;;;4.03;1.40;;;;;;;;;;5065197;28;20064;-78
2023/03/18 14:07:22;;;;;;;4.88;3.05;;;;;;;;;;5063251;28;20037;-77
2023/03/18 14:09:54;;;;;;;2.92;1.40;;;;;;;;;;5058348;28;20028;-78
2023/03/18 14:12:19;;;;;;;4.28;1.02;;;;;;;;;;5030258;28;20049;-78
2023/03/18 14:14:51;;;;;;;2.65;0.80;;;;;;;;;;5030685;28;20035;-79
2023/03/18 14:17:33;;;;;;;3.65;1.50;;;;;;;;;;5036117;28;20052;-77
2023/03/18 14:20:17;;;;;;;3.22;1.38;;;;;;;;;;5035024;28;20116;-77
2023/03/18 14:22:45;;;;;;;3.65;1.30;;;;;;;;;;5030644;28;20112;-77
2023/03/18 14:25:17;;;;;;;2.15;1.30;;;;;;;;;;5044716;28;20025;-78
2023/03/18 14:27:46;;;;;;;4.47;1.30;;;;;;;;;;5045000;28;20057;-78
2023/03/18 14:30:33;;;;;;;1.50;1.33;;;;;;;;;;5044187;28;20116;-76
2023/03/18 14:33:02;;;;;;;3.05;1.13;;;;;;;;;;5035096;28;20132;-77
2023/03/18 14:35:32;;;;;;;4.43;1.38;;;;;;;;;;5043320;28;20045;-78
2023/03/18 14:38:08;;;;;;;3.63;1.40;;;;;;;;;;5042706;28;20132;-77
2023/03/18 14:40:40;;;;;;;2.40;1.40;;;;;;;;;;5044720;28;20128;-77
2023/03/18 14:43:15;;;;;;;2.53;1.60;;;;;;;;;;5044571;28;20050;-76
2023/03/18 14:45:43;;;;;;;3.53;1.52;;;;;;;;;;5045741;28;20021;-77
2023/03/18 14:48:20;;;;;;;3.15;1.50;;;;;;;;;;5043897;28;20767;-77
2023/03/18 14:50:50;;;;;;;6.22;1.45;;;;;;;;;;5045113;28;20763;-77
2023/03/18 14:53:31;;;;;;;3.28;1.80;;;;;;;;;;5042336;28;20052;-77